Time;durP1;ratioP1;P1;durP2;ratioP2;P2;SDS_P1;SDS_P2;PMS_P1;PMS_P2;Temp;Humidity;BMP_temperature;BMP_pressure;BME280_temperature;BME280_humidity;BME280_pressure;Samples;Min_cycle;Max_cycle;Signal;HPM_P1;HPM_P2
2021/03/06 00:00:10;;;;;;;7.53;4.30;;;4.70;55.70;;;;;;5031662;28;20022;-72
2021/03/06 00:02:36;;;;;;;5.80;3.80;;;4.70;55.70;;;;;;5040780;28;20037;-72
2021/03/06 00:05:03;;;;;;;9.77;4.05;;;4.70;55.80;;;;;;5051923;28;20025;-72
2021/03/06 00:07:28;;;;;;;8.00;3.95;;;4.70;55.80;;;;;;5067184;28;20064;-71
2021/03/06 00:09:54;;;;;;;9.13;4.60;;;4.70;55.80;;;;;;5065701;28;20052;-72
2021/03/06 00:12:20;;;;;;;7.40;3.83;;;4.70;56.40;;;;;;5050182;28;20036;-71
2021/03/06 00:14:46;;;;;;;9.65;4.38;;;4.60;55.90;;;;;;5051208;28;20025;-71
2021/03/06 00:17:11;;;;;;;8.40;4.30;;;4.60;55.90;;;;;;5043653;28;20052;-72
2021/03/06 00:19:37;;;;;;;9.45;4.80;;;4.60;55.90;;;;;;5073997;28;20032;-72
2021/03/06 00:22:03;;;;;;;8.35;4.55;;;4.60;56.00;;;;;;5071987;28;20028;-71
2021/03/06 00:24:28;;;;;;;6.68;3.40;;;4.60;56.00;;;;;;5073673;28;20451;-71
2021/03/06 00:26:54;;;;;;;7.25;3.65;;;4.50;56.10;;;;;;5056768;28;20143;-72
2021/03/06 00:29:20;;;;;;;6.40;3.55;;;4.60;56.20;;;;;;5055289;28;20049;-73
2021/03/06 00:31:45;;;;;;;6.40;3.72;;;4.60;56.30;;;;;;5050483;28;20078;-71
2021/03/06 00:34:11;;;;;;;7.38;4.03;;;4.50;56.30;;;;;;5054500;28;20045;-71
2021/03/06 00:36:37;;;;;;;8.27;3.90;;;4.50;56.40;;;;;;5052814;28;20124;-70
2021/03/06 00:39:04;;;;;;;8.25;3.88;;;4.50;56.40;;;;;;5054209;28;20086;-70
2021/03/06 00:41:30;;;;;;;7.95;4.22;;;4.50;56.50;;;;;;5041832;28;20469;-70
2021/03/06 00:43:56;;;;;;;9.85;3.55;;;4.50;56.50;;;;;;5065884;28;20036;-72
2021/03/06 00:46:21;;;;;;;8.48;3.47;;;4.40;56.60;;;;;;5037707;28;20029;-72
2021/03/06 00:48:47;;;;;;;8.80;3.58;;;4.40;56.70;;;;;;5067389;28;20060;-72
2021/03/06 00:51:12;;;;;;;7.22;3.50;;;4.30;56.70;;;;;;5056081;28;20512;-71
2021/03/06 00:53:38;;;;;;;9.20;3.55;;;4.30;56.80;;;;;;5050238;28;20033;-71
2021/03/06 00:56:04;;;;;;;7.45;3.80;;;4.40;56.80;;;;;;5054003;28;20116;-71
2021/03/06 00:58:30;;;;;;;7.10;3.55;;;4.40;56.80;;;;;;5053077;28;20029;-71
2021/03/06 01:00:56;;;;;;;6.07;3.60;;;4.40;56.80;;;;;;5041851;28;20033;-72
2021/03/06 01:03:21;;;;;;;8.88;4.13;;;4.40;56.80;;;;;;5060150;28;20032;-72
2021/03/06 01:05:47;;;;;;;8.88;4.00;;;4.30;56.80;;;;;;5059272;28;20052;-71
2021/03/06 01:08:13;;;;;;;6.32;3.60;;;4.30;56.90;;;;;;5063896;28;20052;-71
2021/03/06 01:10:41;;;;;;;12.90;3.90;;;4.30;56.90;;;;;;5061372;28;20033;-72
2021/03/06 01:13:08;;;;;;;7.13;3.08;;;4.30;56.90;;;;;;5052235;28;20040;-72
2021/03/06 01:15:34;;;;;;;6.85;3.42;;;4.30;57.00;;;;;;5053760;28;20033;-73
2021/03/06 01:18:01;;;;;;;6.75;4.13;;;4.30;57.00;;;;;;5062458;28;20032;-72
2021/03/06 01:20:27;;;;;;;6.95;3.60;;;4.30;57.20;;;;;;5060577;28;20033;-73
2021/03/06 01:22:53;;;;;;;5.57;3.70;;;4.30;57.20;;;;;;5053266;28;20039;-72
2021/03/06 01:25:18;;;;;;;8.48;3.92;;;4.30;57.40;;;;;;5052501;28;20033;-71
2021/03/06 01:27:44;;;;;;;6.80;3.75;;;4.20;57.40;;;;;;5051178;28;20083;-73
2021/03/06 01:30:11;;;;;;;6.93;3.88;;;4.20;57.50;;;;;;5053203;28;20090;-73
2021/03/06 01:32:36;;;;;;;8.15;3.95;;;4.20;57.70;;;;;;5052995;28;20025;-73
2021/03/06 01:35:10;;;;;;;6.07;3.63;;;4.10;57.80;;;;;;5052952;28;20039;-73
2021/03/06 01:37:39;;;;;;;6.72;3.70;;;4.10;58.00;;;;;;5045771;28;20044;-73
2021/03/06 01:40:11;;;;;;;7.20;3.50;;;4.10;58.40;;;;;;5045923;28;20016;-73
2021/03/06 01:42:37;;;;;;;7.63;3.90;;;4.10;58.10;;;;;;5053125;28;20039;-73
2021/03/06 01:45:03;;;;;;;5.75;3.30;;;4.10;58.20;;;;;;5051258;28;20017;-72
2021/03/06 01:47:29;;;;;;;7.47;3.85;;;4.10;58.20;;;;;;5046440;28;20042;-72
2021/03/06 01:49:54;;;;;;;6.53;3.65;;;4.10;58.10;;;;;;5046010;28;20040;-72
2021/03/06 01:52:20;;;;;;;6.75;4.32;;;4.10;58.20;;;;;;5047010;28;20577;-71
2021/03/06 01:54:46;;;;;;;6.72;3.97;;;4.10;58.10;;;;;;5043289;28;20025;-72
2021/03/06 01:57:12;;;;;;;7.90;3.70;;;4.10;58.00;;;;;;5052246;28;20112;-72
2021/03/06 01:59:38;;;;;;;8.30;3.80;;;4.10;57.90;;;;;;5048253;28;20033;-72
2021/03/06 02:02:05;;;;;;;7.18;4.28;;;4.10;57.90;;;;;;5052456;28;20028;-70
2021/03/06 02:04:31;;;;;;;5.82;3.50;;;4.10;58.20;;;;;;5052539;28;20033;-71
2021/03/06 02:06:57;;;;;;;7.15;3.60;;;4.00;58.20;;;;;;5052262;28;20520;-71
2021/03/06 02:09:22;;;;;;;6.00;3.90;;;4.00;58.20;;;;;;5044043;28;20034;-73
2021/03/06 02:12:14;;;;;;;7.35;3.70;;;4.10;58.20;;;;;;5041452;28;20058;-73
2021/03/06 02:15:25;;;;;;;7.43;3.13;;;4.10;58.10;;;;;;5050911;28;20029;-73
2021/03/06 02:18:10;;;;;;;6.00;3.30;;;4.10;57.90;;;;;;5028480;28;20044;-73
2021/03/06 02:20:54;;;;;;;6.30;3.30;;;4.10;58.30;;;;;;5053501;28;20044;-73
2021/03/06 02:23:50;;;;;;;5.13;3.20;;;4.10;58.10;;;;;;5051155;28;20090;-73
2021/03/06 02:26:25;;;;;;;;;;;4.10;58.10;;;;;;5053798;28;20086;-73
2021/03/06 02:29:31;;;;;;;6.47;3.15;;;4.00;58.00;;;;;;5066405;28;19916;-73
2021/03/06 02:32:02;;;;;;;5.85;3.30;;;4.00;58.10;;;;;;5039948;28;20099;-74
2021/03/06 02:34:33;;;;;;;6.25;3.22;;;3.90;58.30;;;;;;5053073;28;20040;-74
2021/03/06 02:37:05;;;;;;;7.13;3.70;;;3.90;58.50;;;;;;5051654;28;20118;-74
2021/03/06 02:39:33;;;;;;;7.05;3.70;;;3.90;58.60;;;;;;5051830;28;20033;-73
2021/03/06 02:42:00;;;;;;;4.55;2.88;;;3.90;58.60;;;;;;5058523;28;20021;-74
2021/03/06 02:44:28;;;;;;;5.97;3.40;;;3.90;58.90;;;;;;5073050;28;20516;-73
2021/03/06 02:46:58;;;;;;;6.13;3.50;;;3.90;58.90;;;;;;5058986;28;20033;-74
2021/03/06 02:49:23;;;;;;;7.35;3.50;;;3.80;59.00;;;;;;5033297;28;20026;-74
2021/03/06 02:51:49;;;;;;;8.00;3.30;;;3.80;59.20;;;;;;5039651;28;20531;-74
2021/03/06 02:54:15;;;;;;;6.78;3.53;;;3.80;59.40;;;;;;5053185;28;20032;-73
2021/03/06 02:56:40;;;;;;;7.22;3.85;;;3.80;60.00;;;;;;5051103;28;20390;-74
2021/03/06 02:59:25;;;;;;;6.70;3.38;;;3.80;59.60;;;;;;5052190;28;20028;-73
2021/03/06 03:02:00;;;;;;;6.63;3.85;;;3.80;59.80;;;;;;5051925;28;20112;-74
2021/03/06 03:04:41;;;;;;;6.40;3.20;;;3.80;60.00;;;;;;5072545;28;20070;-74
2021/03/06 03:07:09;;;;;;;5.97;3.58;;;3.80;60.60;;;;;;5056026;28;20052;-73
2021/03/06 03:09:42;;;;;;;6.40;3.80;;;3.90;60.20;;;;;;5072165;28;20123;-73
2021/03/06 03:12:20;;;;;;;7.70;3.45;;;3.90;60.20;;;;;;5060557;28;20074;-73
2021/03/06 03:14:48;;;;;;;6.10;3.55;;;3.90;60.30;;;;;;5072191;28;20033;-72
2021/03/06 03:17:26;;;;;;;6.50;3.58;;;3.90;60.50;;;;;;5063350;28;20085;-72
2021/03/06 03:20:00;;;;;;;7.90;3.33;;;3.90;60.70;;;;;;5066808;28;20063;-72
2021/03/06 03:22:30;;;;;;;7.57;3.20;;;3.90;61.00;;;;;;5048076;28;20144;-71
2021/03/06 03:25:00;;;;;;;5.13;2.83;;;3.90;61.00;;;;;;5071773;28;20036;-73
2021/03/06 03:27:26;;;;;;;8.98;3.22;;;3.80;61.70;;;;;;5050505;28;20051;-72
2021/03/06 03:29:52;;;;;;;5.63;3.15;;;3.80;61.70;;;;;;5051666;28;20021;-72
2021/03/06 03:32:19;;;;;;;6.00;3.15;;;3.70;62.30;;;;;;5056319;28;20016;-71
2021/03/06 03:34:47;;;;;;;6.30;3.38;;;3.70;61.90;;;;;;5070565;28;20085;-71
2021/03/06 03:37:13;;;;;;;6.20;3.60;;;3.70;62.70;;;;;;5051148;28;20099;-70
2021/03/06 03:39:39;;;;;;;6.55;3.30;;;3.60;63.00;;;;;;5051872;28;20500;-71
2021/03/06 03:42:06;;;;;;;7.00;3.38;;;3.60;62.80;;;;;;5046130;28;20025;-71
2021/03/06 03:44:33;;;;;;;8.85;3.53;;;3.60;62.80;;;;;;5071578;28;20032;-71
2021/03/06 03:46:59;;;;;;;6.03;3.22;;;3.60;62.80;;;;;;5051388;28;20040;-71
2021/03/06 03:49:25;;;;;;;5.72;2.90;;;3.60;63.00;;;;;;5051896;28;20021;-71
2021/03/06 03:51:50;;;;;;;6.97;3.67;;;3.70;63.10;;;;;;5048944;28;20027;-70
2021/03/06 03:54:17;;;;;;;6.38;3.53;;;3.60;63.20;;;;;;5070030;28;20475;-71
2021/03/06 03:56:43;;;;;;;7.25;3.60;;;3.60;63.20;;;;;;5055079;28;20025;-71
2021/03/06 03:59:09;;;;;;;7.05;3.70;;;3.60;63.60;;;;;;5031443;28;20083;-71
2021/03/06 04:01:45;;;;;;;7.15;3.30;;;3.60;63.60;;;;;;5044154;28;20037;-70
2021/03/06 04:04:30;;;;;;;6.38;3.17;;;3.60;64.10;;;;;;5031339;28;20136;-70
2021/03/06 04:06:57;;;;;;;5.57;3.17;;;3.60;64.00;;;;;;5046854;28;20029;-71
2021/03/06 04:09:23;;;;;;;6.88;3.67;;;3.60;63.90;;;;;;5071655;28;20041;-70
2021/03/06 04:11:48;;;;;;;7.57;3.35;;;3.60;64.00;;;;;;5039022;28;20040;-70
2021/03/06 04:14:14;;;;;;;6.60;3.05;;;3.60;64.20;;;;;;5051291;28;20367;-70
2021/03/06 04:16:40;;;;;;;5.03;3.05;;;3.60;64.30;;;;;;5049275;28;20408;-71
2021/03/06 04:19:05;;;;;;;5.68;3.03;;;3.50;64.30;;;;;;5070628;28;20500;-71
2021/03/06 04:21:31;;;;;;;6.47;3.28;;;3.50;64.60;;;;;;5055599;28;20105;-71
2021/03/06 04:23:57;;;;;;;7.30;3.65;;;3.50;64.70;;;;;;5050297;28;20518;-71
2021/03/06 04:26:23;;;;;;;8.02;3.20;;;3.60;64.80;;;;;;5050053;28;20033;-71
2021/03/06 04:28:49;;;;;;;9.07;3.30;;;3.40;64.90;;;;;;5067633;28;20041;-70
2021/03/06 04:31:15;;;;;;;6.25;2.88;;;3.50;65.20;;;;;;5056812;28;20024;-70
2021/03/06 04:33:40;;;;;;;6.47;3.33;;;3.50;65.30;;;;;;5064305;28;20449;-70
2021/03/06 04:36:06;;;;;;;5.88;3.45;;;3.50;65.50;;;;;;5056848;28;20032;-70
2021/03/06 04:38:32;;;;;;;5.35;2.80;;;3.50;65.60;;;;;;5064653;28;20082;-70
2021/03/06 04:40:58;;;;;;;7.32;3.30;;;3.40;65.70;;;;;;5054214;28;20108;-70
2021/03/06 04:43:23;;;;;;;7.10;3.33;;;3.50;65.90;;;;;;5050142;28;20480;-70
2021/03/06 04:45:49;;;;;;;7.45;2.78;;;3.50;65.90;;;;;;5048904;28;20035;-70
2021/03/06 04:48:14;;;;;;;7.88;3.20;;;3.40;66.40;;;;;;5061822;28;20055;-71
2021/03/06 04:50:40;;;;;;;7.88;3.42;;;3.40;66.20;;;;;;5058541;28;20029;-70
2021/03/06 04:53:06;;;;;;;6.70;2.92;;;3.40;66.40;;;;;;5049851;28;20044;-70
2021/03/06 04:55:31;;;;;;;4.78;2.92;;;3.50;66.50;;;;;;5049949;28;20025;-71
2021/03/06 04:57:57;;;;;;;6.13;3.08;;;3.40;66.70;;;;;;5048500;28;20390;-71
2021/03/06 05:00:22;;;;;;;8.23;3.00;;;3.50;66.70;;;;;;5044157;28;20026;-71
2021/03/06 05:02:48;;;;;;;7.30;2.67;;;3.50;66.80;;;;;;5050220;28;20040;-70
2021/03/06 05:05:13;;;;;;;6.60;3.10;;;3.50;66.90;;;;;;5066875;28;20436;-70
2021/03/06 05:07:40;;;;;;;6.90;2.83;;;3.50;67.10;;;;;;5059607;28;20089;-70
2021/03/06 05:10:06;;;;;;;8.40;3.30;;;3.40;67.30;;;;;;5058905;28;20059;-70
2021/03/06 05:12:31;;;;;;;6.65;2.95;;;3.50;67.40;;;;;;5047640;28;20385;-71
2021/03/06 05:14:57;;;;;;;5.57;2.65;;;3.40;67.40;;;;;;5066432;28;20029;-71
2021/03/06 05:17:23;;;;;;;7.05;2.70;;;3.40;67.40;;;;;;5057211;28;20592;-71
2021/03/06 05:19:49;;;;;;;4.93;2.80;;;3.40;67.50;;;;;;5069085;28;20021;-72
2021/03/06 05:22:14;;;;;;;6.13;2.70;;;3.40;67.50;;;;;;5064887;28;20070;-71
2021/03/06 05:24:40;;;;;;;7.43;3.05;;;3.40;67.40;;;;;;5062007;28;20028;-71
2021/03/06 05:27:06;;;;;;;4.55;2.42;;;3.50;67.50;;;;;;5043104;28;20112;-71
2021/03/06 05:29:34;;;;;;;5.70;3.35;;;3.40;67.70;;;;;;5052529;28;20102;-72
2021/03/06 05:32:03;;;;;;;4.03;2.10;;;3.50;67.20;;;;;;5052732;28;20029;-71
2021/03/06 05:34:29;;;;;;;6.72;2.90;;;3.50;67.20;;;;;;5052507;28;20064;-71
2021/03/06 05:36:54;;;;;;;7.70;2.65;;;3.50;67.30;;;;;;5053328;28;20083;-71
2021/03/06 05:39:20;;;;;;;7.85;3.08;;;3.50;67.60;;;;;;5062602;28;20099;-71
2021/03/06 05:41:47;;;;;;;6.07;2.75;;;3.40;67.70;;;;;;5049171;28;20025;-71
2021/03/06 05:44:13;;;;;;;5.40;2.88;;;3.40;67.70;;;;;;5067800;28;20033;-71
2021/03/06 05:46:41;;;;;;;6.97;3.33;;;3.40;68.00;;;;;;5052474;28;20210;-71
2021/03/06 05:49:07;;;;;;;7.57;3.10;;;3.40;68.10;;;;;;5067973;28;20074;-71
2021/03/06 05:51:37;;;;;;;6.90;3.45;;;3.40;68.00;;;;;;5033505;28;20021;-71
2021/03/06 05:54:08;;;;;;;6.63;3.40;;;3.40;68.10;;;;;;5064078;28;20041;-72
2021/03/06 05:56:36;;;;;;;5.78;3.30;;;3.40;68.10;;;;;;5051238;28;20029;-72
2021/03/06 05:59:07;;;;;;;6.18;3.35;;;3.40;68.20;;;;;;5064773;28;20021;-72
2021/03/06 06:01:34;;;;;;;7.72;3.30;;;3.40;68.30;;;;;;5052789;28;20111;-72
2021/03/06 06:04:04;;;;;;;9.63;3.80;;;3.40;68.50;;;;;;5052002;28;20106;-73
2021/03/06 06:06:31;;;;;;;7.60;3.33;;;3.30;68.60;;;;;;5053166;28;20037;-73
2021/03/06 06:08:58;;;;;;;6.55;3.13;;;3.40;68.90;;;;;;5046330;28;20063;-71
2021/03/06 06:11:24;;;;;;;5.40;3.15;;;3.40;69.10;;;;;;5047772;28;20021;-71
2021/03/06 06:13:50;;;;;;;6.63;3.03;;;3.40;69.10;;;;;;5051095;28;20028;-70
2021/03/06 06:16:16;;;;;;;4.97;2.80;;;3.40;69.00;;;;;;5052912;28;20040;-71
2021/03/06 06:18:42;;;;;;;7.53;3.50;;;3.40;69.10;;;;;;5059072;28;20021;-71
2021/03/06 06:21:37;;;;;;;5.53;3.00;;;3.50;69.10;;;;;;5032566;28;20178;-71
2021/03/06 06:24:04;;;;;;;8.45;3.60;;;3.50;69.30;;;;;;5064292;28;20363;-68
2021/03/06 06:26:30;;;;;;;13.02;3.33;;;3.50;69.60;;;;;;5062567;28;20086;-69
2021/03/06 06:28:56;;;;;;;7.10;3.10;;;3.50;69.50;;;;;;5062289;28;20030;-71
2021/03/06 06:31:22;;;;;;;14.52;3.42;;;3.60;69.50;;;;;;5032610;28;20462;-72
2021/03/06 06:33:48;;;;;;;5.47;3.40;;;3.60;69.60;;;;;;5046407;28;20413;-73
2021/03/06 06:36:38;;;;;;;7.03;3.60;;;3.60;69.50;;;;;;5032712;28;20086;-72
2021/03/06 06:39:06;;;;;;;5.95;3.08;;;3.60;69.60;;;;;;5041007;28;20543;-70
2021/03/06 06:41:51;;;;;;;6.40;2.85;;;3.70;69.60;;;;;;5043079;28;20175;-70
2021/03/06 06:44:18;;;;;;;6.28;2.72;;;3.80;69.50;;;;;;5042766;28;20555;-68
2021/03/06 06:46:44;;;;;;;6.00;2.88;;;3.80;69.50;;;;;;5050789;28;20066;-69
2021/03/06 06:49:10;;;;;;;4.72;2.63;;;3.90;69.50;;;;;;5050969;28;20028;-69
2021/03/06 06:51:35;;;;;;;8.13;3.03;;;3.90;69.50;;;;;;5053539;28;20392;-69
2021/03/06 06:54:15;;;;;;;7.25;2.88;;;3.90;69.40;;;;;;5063779;28;20028;-68
2021/03/06 06:56:40;;;;;;;6.60;3.13;;;4.00;69.60;;;;;;5048681;28;20039;-70
2021/03/06 06:59:10;;;;;;;6.28;3.30;;;4.00;69.40;;;;;;5051587;28;20049;-69
2021/03/06 07:01:37;;;;;;;6.18;3.03;;;4.10;69.50;;;;;;5057536;28;20016;-70
2021/03/06 07:04:07;;;;;;;9.45;3.45;;;4.10;69.80;;;;;;5050952;28;20021;-69
2021/03/06 07:06:34;;;;;;;5.85;2.85;;;4.10;69.40;;;;;;5051708;28;20060;-69
2021/03/06 07:09:10;;;;;;;6.90;2.90;;;4.10;69.40;;;;;;5061597;28;20029;-69
2021/03/06 07:11:36;;;;;;;5.95;2.85;;;4.20;69.30;;;;;;5050629;28;20029;-69
2021/03/06 07:14:03;;;;;;;7.00;2.90;;;4.20;69.40;;;;;;5059488;28;20501;-69
2021/03/06 07:17:00;;;;;;;5.70;2.65;;;4.30;69.30;;;;;;5051991;28;20040;-69
2021/03/06 07:19:31;;;;;;;7.75;2.92;;;4.30;69.20;;;;;;5031841;28;20069;-69
2021/03/06 07:21:58;;;;;;;6.97;3.10;;;4.30;69.10;;;;;;5053645;28;20052;-69
2021/03/06 07:24:26;;;;;;;7.43;2.97;;;4.30;69.10;;;;;;5049147;28;20027;-69
2021/03/06 07:26:52;;;;;;;12.25;2.95;;;4.30;69.10;;;;;;5049378;28;21789;-69
2021/03/06 07:29:19;;;;;;;6.32;2.83;;;4.30;69.10;;;;;;5055814;28;20101;-69
2021/03/06 07:31:48;;;;;;;3.78;2.35;;;4.30;69.30;;;;;;5049480;28;20056;-69
2021/03/06 07:34:14;;;;;;;6.15;2.67;;;4.30;69.40;;;;;;5041286;28;20033;-70
2021/03/06 07:36:42;;;;;;;5.72;2.53;;;4.30;69.70;;;;;;5042416;28;20021;-69
2021/03/06 07:39:12;;;;;;;4.43;2.35;;;4.40;69.50;;;;;;5050542;28;20448;-70
2021/03/06 07:41:41;;;;;;;8.52;2.70;;;4.40;70.00;;;;;;5047681;28;20025;-70
2021/03/06 07:44:07;;;;;;;5.90;1.92;;;4.40;70.00;;;;;;5054881;28;20060;-70
2021/03/06 07:46:38;;;;;;;5.93;2.58;;;4.50;69.90;;;;;;5048595;28;20028;-70
2021/03/06 07:49:11;;;;;;;6.53;2.40;;;4.50;69.80;;;;;;5052978;28;20039;-70
2021/03/06 07:51:41;;;;;;;6.53;2.33;;;4.50;70.40;;;;;;5047387;28;20052;-70
2021/03/06 07:54:09;;;;;;;6.10;2.08;;;4.50;70.20;;;;;;5058284;28;20044;-69
2021/03/06 07:56:37;;;;;;;9.40;2.80;;;4.50;70.30;;;;;;5050122;28;20025;-69
2021/03/06 07:59:03;;;;;;;4.93;2.35;;;4.60;70.10;;;;;;5050994;28;20492;-67
2021/03/06 08:01:30;;;;;;;8.27;2.30;;;4.60;70.20;;;;;;5046228;28;20067;-67
2021/03/06 08:03:56;;;;;;;6.40;2.50;;;4.60;70.00;;;;;;5044102;28;20513;-67
2021/03/06 08:06:23;;;;;;;6.60;2.70;;;4.60;69.90;;;;;;5044546;28;20051;-67
2021/03/06 08:08:53;;;;;;;5.38;2.42;;;4.70;69.90;;;;;;5050647;28;20064;-68
2021/03/06 08:11:20;;;;;;;4.65;2.72;;;4.70;69.60;;;;;;5050485;28;20029;-68
2021/03/06 08:13:56;;;;;;;5.40;2.53;;;4.70;69.70;;;;;;5066623;28;20398;-69
2021/03/06 08:16:24;;;;;;;10.40;3.08;;;4.70;69.70;;;;;;5057471;28;20021;-68
2021/03/06 08:18:54;;;;;;;7.35;2.55;;;4.80;69.70;;;;;;5050003;28;20029;-68
2021/03/06 08:21:39;;;;;;;6.53;2.42;;;4.80;69.50;;;;;;5049933;28;20021;-69
2021/03/06 08:26:53;;;;;;;6.35;2.13;;;4.80;69.50;;;;;;5049429;28;20119;-68
2021/03/06 08:29:28;;;;;;;3.78;2.13;;;4.80;69.60;;;;;;5050670;28;20041;-68
2021/03/06 08:32:01;;;;;;;6.72;2.00;;;4.80;69.70;;;;;;5055286;28;20029;-68
2021/03/06 08:34:45;;;;;;;4.13;2.47;;;4.90;69.60;;;;;;5049959;28;20101;-69
2021/03/06 08:37:16;;;;;;;5.47;2.25;;;4.90;69.60;;;;;;5055841;28;20028;-69
2021/03/06 08:40:15;;;;;;;7.30;2.33;;;4.90;70.00;;;;;;5056900;28;20044;-69
2021/03/06 08:42:42;;;;;;;9.32;2.67;;;4.90;70.50;;;;;;5033570;28;20048;-69
2021/03/06 08:45:10;;;;;;;7.10;2.70;;;4.90;70.40;;;;;;5053232;28;20098;-69
2021/03/06 08:47:37;;;;;;;6.18;2.35;;;4.90;70.60;;;;;;5056001;28;20028;-69
2021/03/06 08:50:07;;;;;;;7.80;2.58;;;5.00;70.80;;;;;;5056799;28;20075;-69
2021/03/06 08:52:32;;;;;;;6.30;2.13;;;5.00;71.00;;;;;;5049580;28;20051;-69
2021/03/06 08:54:58;;;;;;;8.52;2.55;;;5.00;71.60;;;;;;5055187;28;20032;-69
2021/03/06 08:57:28;;;;;;;7.00;3.47;;;5.10;72.00;;;;;;5057638;28;20040;-68
2021/03/06 08:59:55;;;;;;;4.43;1.70;;;5.10;72.40;;;;;;5068513;28;20476;-68
2021/03/06 09:02:29;;;;;;;5.82;1.90;;;5.10;73.20;;;;;;5050147;28;20028;-68
2021/03/06 09:05:08;;;;;;;5.97;1.70;;;5.10;73.50;;;;;;5053057;28;20111;-70
2021/03/06 09:07:37;;;;;;;4.45;2.13;;;5.10;73.80;;;;;;5051048;28;20068;-69
2021/03/06 09:10:28;;;;;;;5.65;2.03;;;5.20;73.70;;;;;;5053683;28;20104;-69
2021/03/06 09:13:07;;;;;;;4.50;1.70;;;5.20;73.70;;;;;;5044347;28;20117;-69
2021/03/06 09:15:39;;;;;;;5.13;2.50;;;5.20;73.90;;;;;;5063934;28;20069;-68
2021/03/06 09:18:07;;;;;;;11.43;3.08;;;5.30;73.80;;;;;;5052376;28;20036;-68
2021/03/06 09:20:46;;;;;;;7.40;2.67;;;5.30;74.30;;;;;;5063202;28;20032;-68
2021/03/06 09:23:29;;;;;;;6.93;2.00;;;5.30;74.40;;;;;;5052953;28;20033;-69
2021/03/06 09:25:56;;;;;;;5.90;2.45;;;5.40;74.40;;;;;;5049677;28;20032;-68
2021/03/06 09:28:24;;;;;;;4.72;2.08;;;5.40;74.10;;;;;;5057867;28;20467;-69
2021/03/06 09:30:50;;;;;;;5.50;2.08;;;5.40;74.30;;;;;;5045223;28;20044;-69
2021/03/06 09:33:34;;;;;;;6.60;2.17;;;5.50;73.90;;;;;;5060012;28;20497;-69
2021/03/06 09:36:09;;;;;;;6.28;2.20;;;5.70;73.70;;;;;;5063418;28;20029;-69
2021/03/06 09:38:52;;;;;;;6.38;2.33;;;5.80;73.60;;;;;;5053019;28;20120;-69
2021/03/06 09:41:23;;;;;;;4.65;2.30;;;5.90;73.80;;;;;;5053313;28;20133;-72
2021/03/06 09:43:51;;;;;;;6.80;2.33;;;6.10;73.70;;;;;;5068572;28;20028;-72
2021/03/06 09:46:19;;;;;;;6.28;1.95;;;6.20;73.50;;;;;;5057216;28;20029;-72
2021/03/06 09:48:52;;;;;;;6.82;2.20;;;6.30;73.00;;;;;;5041729;28;20122;-71
2021/03/06 09:51:18;;;;;;;8.27;2.05;;;6.50;72.80;;;;;;5044718;28;20024;-70
2021/03/06 09:53:58;;;;;;;5.40;1.88;;;6.60;72.60;;;;;;5052243;28;20055;-74
2021/03/06 09:56:24;;;;;;;7.57;2.15;;;6.70;72.20;;;;;;5053276;28;20489;-75
2021/03/06 09:59:04;;;;;;;8.15;3.10;;;6.80;72.20;;;;;;5052227;28;20043;-71
2021/03/06 10:01:31;;;;;;;5.13;1.95;;;7.00;71.90;;;;;;5050888;28;20111;-68
2021/03/06 10:03:58;;;;;;;8.93;2.15;;;7.10;72.00;;;;;;5070697;28;20038;-72
2021/03/06 10:06:32;;;;;;;8.43;2.78;;;7.20;71.80;;;;;;5054195;28;20084;-74
2021/03/06 10:09:00;;;;;;;10.82;2.78;;;7.30;71.60;;;;;;5067432;28;20044;-74
2021/03/06 10:11:37;;;;;;;6.90;2.10;;;7.40;71.40;;;;;;5046418;28;20029;-73
2021/03/06 10:14:03;;;;;;;5.38;2.22;;;7.40;71.60;;;;;;5052181;28;20025;-73
2021/03/06 10:16:40;;;;;;;8.02;2.55;;;7.40;71.00;;;;;;5049212;28;20032;-75
2021/03/06 10:19:06;;;;;;;4.50;2.42;;;7.50;71.10;;;;;;5070825;28;20098;-73
2021/03/06 10:21:32;;;;;;;4.35;2.22;;;7.60;71.00;;;;;;5052275;28;20171;-73
2021/03/06 10:24:05;;;;;;;6.65;2.20;;;7.70;71.10;;;;;;5051814;28;20040;-72
2021/03/06 10:26:31;;;;;;;6.03;2.28;;;7.80;70.40;;;;;;5065128;28;20032;-72
2021/03/06 10:29:00;;;;;;;6.05;2.22;;;7.80;69.90;;;;;;5067924;28;20040;-72
2021/03/06 10:31:37;;;;;;;6.78;2.13;;;8.00;69.80;;;;;;5053396;28;20036;-72
2021/03/06 10:34:23;;;;;;;8.98;2.63;;;8.00;69.60;;;;;;5037886;28;20028;-72
2021/03/06 10:37:09;;;;;;;7.50;2.50;;;8.00;69.40;;;;;;5051760;28;20082;-74
2021/03/06 10:39:57;;;;;;;6.50;2.28;;;8.10;69.20;;;;;;5052549;28;20120;-72
2021/03/06 10:42:24;;;;;;;6.60;2.45;;;8.10;69.60;;;;;;5062831;28;20043;-71
2021/03/06 10:44:56;;;;;;;7.07;2.13;;;8.20;69.30;;;;;;5051479;28;20033;-71
2021/03/06 10:47:21;;;;;;;6.65;2.60;;;8.20;69.10;;;;;;5050043;28;20036;-71
2021/03/06 10:49:48;;;;;;;6.75;2.40;;;8.10;69.10;;;;;;5039263;28;20037;-71
2021/03/06 10:52:30;;;;;;;8.23;2.53;;;8.20;69.10;;;;;;5045980;28;20060;-71
2021/03/06 10:54:57;;;;;;;6.20;2.58;;;8.30;69.50;;;;;;5058964;28;20032;-71
2021/03/06 10:57:26;;;;;;;7.10;2.30;;;8.30;69.10;;;;;;5078999;28;20090;-71
2021/03/06 10:59:53;;;;;;;6.60;2.10;;;8.30;68.90;;;;;;5061464;28;20029;-71
2021/03/06 11:02:27;;;;;;;7.57;2.60;;;8.30;68.90;;;;;;5050530;28;20029;-71
2021/03/06 11:04:53;;;;;;;5.63;2.42;;;8.30;69.10;;;;;;5051505;28;20033;-71
2021/03/06 11:07:29;;;;;;;4.93;2.28;;;8.30;70.00;;;;;;5051994;28;20559;-71
2021/03/06 11:09:59;;;;;;;7.45;2.65;;;8.20;71.00;;;;;;5045042;28;20041;-71
2021/03/06 11:12:30;;;;;;;5.75;2.67;;;8.20;71.20;;;;;;5049858;28;20856;-70
2021/03/06 11:15:16;;;;;;;6.32;2.60;;;8.10;71.50;;;;;;5051223;28;20079;-70
2021/03/06 11:17:44;;;;;;;8.45;2.60;;;8.10;71.80;;;;;;5050398;28;20112;-71
2021/03/06 11:20:12;;;;;;;8.05;2.55;;;8.00;71.80;;;;;;5048942;28;20021;-70
2021/03/06 11:22:38;;;;;;;6.32;2.80;;;8.00;72.00;;;;;;5051233;28;20032;-71
2021/03/06 11:25:10;;;;;;;9.93;2.70;;;8.00;72.00;;;;;;5051772;28;20024;-71
2021/03/06 11:27:45;;;;;;;6.63;3.00;;;7.90;71.70;;;;;;5049253;28;20086;-71
2021/03/06 11:30:13;;;;;;;9.65;3.20;;;7.90;71.70;;;;;;5045776;28;20057;-70
2021/03/06 11:32:39;;;;;;;8.65;2.88;;;7.90;71.60;;;;;;5065500;28;20082;-70
2021/03/06 11:35:07;;;;;;;5.40;2.70;;;7.90;71.50;;;;;;5060458;28;20029;-71
2021/03/06 11:37:33;;;;;;;7.32;2.83;;;7.90;71.90;;;;;;5048950;28;20029;-70
2021/03/06 11:39:59;;;;;;;8.25;2.90;;;7.90;71.80;;;;;;5055097;28;20045;-71
2021/03/06 11:42:24;;;;;;;8.82;3.20;;;7.90;71.70;;;;;;5049058;28;20065;-73
2021/03/06 11:44:50;;;;;;;9.63;3.90;;;7.90;71.90;;;;;;5051437;28;20696;-71
2021/03/06 11:47:15;;;;;;;9.63;3.97;;;7.80;72.40;;;;;;5048562;28;20041;-71
2021/03/06 11:49:41;;;;;;;7.80;3.20;;;7.80;72.40;;;;;;5049521;28;20116;-72
2021/03/06 11:52:06;;;;;;;8.77;3.42;;;7.80;72.70;;;;;;5047772;28;20039;-72
2021/03/06 11:54:32;;;;;;;8.02;3.72;;;7.80;72.50;;;;;;5063338;28;20028;-72
2021/03/06 11:56:57;;;;;;;5.95;3.10;;;7.80;73.00;;;;;;5049646;28;20108;-73
2021/03/06 11:59:23;;;;;;;6.35;3.42;;;7.80;73.20;;;;;;5061511;28;20035;-73
2021/03/06 12:01:48;;;;;;;6.93;3.92;;;7.80;72.90;;;;;;5045085;28;20041;-73
2021/03/06 12:04:14;;;;;;;5.88;3.10;;;7.90;73.20;;;;;;5066088;28;20027;-74
2021/03/06 12:06:39;;;;;;;8.02;3.67;;;7.90;73.40;;;;;;5050582;28;20021;-74
2021/03/06 12:09:06;;;;;;;8.13;3.40;;;7.90;73.40;;;;;;5060838;28;20484;-73
2021/03/06 12:11:32;;;;;;;7.97;3.80;;;7.90;73.10;;;;;;5052559;28;20396;-73
2021/03/06 12:13:58;;;;;;;9.70;4.18;;;8.00;73.50;;;;;;5070617;28;20032;-73
2021/03/06 12:16:23;;;;;;;8.63;3.88;;;8.00;73.40;;;;;;5064360;28;20484;-73
2021/03/06 12:18:49;;;;;;;6.90;3.40;;;8.00;73.10;;;;;;5058637;28;20035;-72
2021/03/06 12:21:16;;;;;;;8.27;3.35;;;8.00;72.80;;;;;;5055755;28;20639;-72
2021/03/06 12:23:41;;;;;;;9.38;3.30;;;7.90;72.80;;;;;;5058192;28;20431;-73
2021/03/06 12:26:07;;;;;;;7.25;3.65;;;7.90;73.00;;;;;;5063683;28;20067;-73
2021/03/06 12:28:32;;;;;;;9.15;4.15;;;7.80;73.60;;;;;;5048763;28;20039;-73
2021/03/06 12:30:58;;;;;;;15.98;3.88;;;7.80;73.50;;;;;;5058925;28;20019;-73
2021/03/06 12:33:23;;;;;;;7.97;3.83;;;7.70;74.80;;;;;;5054707;28;20091;-73
2021/03/06 12:35:49;;;;;;;7.30;3.60;;;7.70;74.10;;;;;;5056800;28;20035;-73
2021/03/06 12:38:14;;;;;;;7.40;3.38;;;7.60;74.30;;;;;;5052483;28;20033;-72
2021/03/06 12:40:40;;;;;;;6.65;3.65;;;7.60;74.00;;;;;;5049942;28;20030;-73
2021/03/06 12:43:05;;;;;;;8.65;3.83;;;7.60;74.20;;;;;;5056808;28;20024;-73
2021/03/06 12:45:31;;;;;;;6.75;4.00;;;7.50;74.60;;;;;;5056731;28;20051;-73
2021/03/06 12:47:56;;;;;;;5.80;3.67;;;7.40;74.40;;;;;;5063474;28;20044;-74
2021/03/06 12:50:22;;;;;;;7.30;4.20;;;7.40;74.70;;;;;;5057455;28;20477;-73
2021/03/06 12:52:47;;;;;;;7.30;3.63;;;7.30;74.60;;;;;;5048111;28;20594;-73
2021/03/06 12:55:13;;;;;;;6.35;3.97;;;7.30;74.90;;;;;;5066138;28;20060;-74
2021/03/06 12:57:39;;;;;;;6.47;3.70;;;7.30;74.90;;;;;;5053779;28;20083;-74
2021/03/06 13:00:05;;;;;;;8.25;3.40;;;7.30;74.70;;;;;;5062331;28;20032;-76
2021/03/06 13:02:31;;;;;;;7.13;3.35;;;7.30;75.20;;;;;;5075193;28;20021;-73
2021/03/06 13:04:56;;;;;;;8.48;3.72;;;7.30;74.80;;;;;;5060656;28;20036;-73
2021/03/06 13:07:22;;;;;;;7.20;3.75;;;7.20;74.90;;;;;;5043927;28;20551;-73
2021/03/06 13:09:48;;;;;;;7.55;3.67;;;7.20;74.80;;;;;;5057494;28;20171;-74